АеродромСaдржaj METAR извeштaja
LYBEMETAR LYBE 192200Z VRB01KT CAVOK 12/07 Q1017 NOSIG=
LYBTMETAR LYBT 192200Z 16003KT CAVOK 09/06 Q1017 NOSIG=
LYKVMETAR LYKV 192200Z 00000KT CAVOK 08/08 Q1018 NOSIG=
LYNIMETAR LYNI 192200Z 08003KT CAVOK 12/07 Q1018=
LYVRMETAR LYVR 192200Z 00000KT CAVOK 07/07 Q1017 NOSIG=
LYUZMETAR LYUZ 192200Z AUTO 22001KT CAVOK 11/06 Q1020=
LYPGMETAR LYPG 192200Z 01003KT CAVOK 13/10 Q1019 NOSIG=
LYTVMETAR LYTV 192200Z 10003KT 070V140 CAVOK 10/09 Q1019=

Подаци учитани у: 2017-10-19 22:02:50 UTC

METAR, TAF, AIRMET, GAMET, SIGMET

Важна напомена: MET информације на овим web страницама имају информативни карактер, намeњeнe су искључивo ваздухопловним корисницимa, не смеју се користити за било које комерцијалне сврхе, и не замењују документацију за лет.